Bucyrus, Kansas
Current Conditions -  °F | °C
As of 8:29 PM on Saturday 22 Nov 2014 (Local Time) from KOJC Reporting Station
Overcast Overcast  
Wind Chill: 55°   Ceiling: 1400
Heat Index: 55°   Visibility: 10mi
Dew Point: 51°   Wind: 15mph
Humidity: 86%   Direction: 190°S
Pressure: 29.74"   Gusts: NA
Location:  38.73°N, 94.72°W
Report Text: KOJC 230229Z 19013KT 10SM OVC014 13/11 A2974 RMK AO2 T01280106
Loading
Personal Weather Stations






























Interactive Weather Map New forecast layout! Learn more

10-Day Weather Forecast

Advertisements
Track Severe Weather on mobile